createdAt,value
2022-09-20T00:01:56.524Z,0.40
2022-09-20T00:04:01.190Z,0.55
2022-09-20T00:06:05.708Z,0.52
2022-09-20T00:08:12.066Z,0.50
2022-09-20T00:10:14.725Z,0.57
2022-09-20T00:12:17.254Z,0.65
2022-09-20T00:14:19.789Z,0.63
2022-09-20T00:16:25.966Z,0.77
2022-09-20T00:18:28.608Z,0.40
2022-09-20T00:20:31.165Z,0.40
2022-09-20T00:22:33.692Z,0.60
2022-09-20T00:24:36.870Z,0.30
2022-09-20T00:26:40.563Z,0.43
2022-09-20T00:28:43.814Z,0.65
2022-09-20T00:30:46.370Z,0.73
2022-09-20T00:32:48.902Z,0.60
2022-09-20T00:35:11.065Z,0.40
2022-09-20T00:37:13.652Z,0.70
2022-09-20T00:39:17.416Z,0.40
2022-09-20T00:41:20.020Z,0.50
2022-09-20T00:43:40.402Z,0.50
2022-09-20T00:45:47.751Z,0.57
2022-09-20T00:47:53.133Z,0.60
2022-09-20T00:50:18.599Z,0.75
2022-09-20T00:52:21.823Z,0.65
2022-09-20T00:54:25.914Z,0.30
2022-09-20T00:56:37.736Z,0.63
2022-09-20T01:00:48.520Z,0.70
2022-09-20T01:02:56.919Z,0.60
2022-09-20T01:05:00.303Z,0.50
2022-09-20T01:07:07.397Z,0.50
2022-09-20T01:09:10.042Z,0.60
2022-09-20T01:11:12.757Z,0.55
2022-09-20T01:13:15.336Z,0.70
2022-09-20T01:15:18.669Z,0.60
2022-09-20T01:17:25.472Z,0.55
2022-09-20T01:19:57.930Z,0.38
2022-09-20T01:22:05.865Z,0.70
2022-09-20T01:24:27.663Z,0.40
2022-09-20T01:27:04.372Z,0.50
2022-09-20T01:29:18.472Z,0.38
2022-09-20T01:31:32.073Z,0.60
2022-09-20T01:33:46.230Z,0.50
2022-09-20T01:35:53.907Z,0.75
2022-09-20T01:37:59.593Z,0.93
2022-09-20T01:40:20.910Z,0.73
2022-09-20T01:42:32.435Z,0.50
2022-09-20T01:44:43.899Z,0.55
2022-09-20T01:46:55.260Z,0.60
2022-09-20T01:49:24.077Z,0.75
2022-09-20T01:52:19.597Z,0.50
2022-09-20T01:55:00.034Z,0.70
2022-09-20T01:57:26.471Z,0.73
2022-09-20T01:59:55.652Z,0.80
2022-09-20T02:02:09.670Z,0.30
2022-09-20T02:04:36.898Z,0.75
2022-09-20T02:07:07.277Z,0.80
2022-09-20T02:09:09.816Z,0.77
2022-09-20T02:11:50.898Z,0.75
2022-09-20T02:14:19.837Z,0.57
2022-09-20T02:16:43.510Z,0.60
2022-09-20T02:19:17.219Z,0.88
2022-09-20T02:21:31.752Z,0.60
2022-09-20T02:23:37.211Z,0.60
2022-09-20T02:25:55.421Z,0.47
2022-09-20T02:28:16.447Z,1.13
2022-09-20T02:30:41.262Z,0.60
2022-09-20T02:32:58.840Z,0.80
2022-09-20T02:35:12.535Z,0.88
2022-09-20T02:37:36.340Z,0.98
2022-09-20T02:39:50.730Z,0.82
2022-09-20T02:42:07.470Z,0.90
2022-09-20T02:44:21.186Z,0.60
2022-09-20T02:46:26.386Z,0.60
2022-09-20T02:48:54.912Z,0.65
2022-09-20T02:51:20.522Z,0.75
2022-09-20T02:53:37.336Z,0.60
2022-09-20T02:56:08.905Z,0.85
2022-09-20T02:58:17.331Z,0.82
2022-09-20T03:00:25.416Z,0.90
2022-09-20T03:02:45.680Z,1.10
2022-09-20T03:05:15.209Z,0.68
2022-09-20T03:08:06.335Z,1.10
2022-09-20T03:10:20.618Z,0.88
2022-09-20T03:12:53.488Z,0.80
2022-09-20T03:15:23.397Z,0.60
2022-09-20T03:17:42.597Z,0.88
2022-09-20T03:20:13.143Z,0.90
2022-09-20T03:22:43.251Z,0.80
2022-09-20T03:25:15.375Z,0.88
2022-09-20T03:27:36.209Z,1.05
2022-09-20T03:29:39.230Z,0.57
2022-09-20T03:31:44.375Z,0.80
2022-09-20T03:34:08.315Z,1.08
2022-09-20T03:36:28.827Z,0.68
2022-09-20T03:39:11.311Z,0.80
2022-09-20T03:41:43.351Z,0.65
2022-09-20T03:43:57.907Z,0.82
2022-09-20T03:46:17.807Z,0.77
2022-09-20T03:48:38.370Z,0.88
2022-09-20T03:51:15.607Z,0.82
2022-09-20T03:53:27.080Z,0.80
2022-09-20T03:55:44.593Z,0.80
2022-09-20T03:57:49.778Z,0.73
2022-09-20T04:00:42.894Z,0.80
2022-09-20T04:03:07.152Z,0.93
2022-09-20T04:05:18.711Z,1.05
2022-09-20T04:07:33.424Z,0.80
2022-09-20T04:10:13.912Z,1.10
2022-09-20T04:12:57.767Z,0.80
2022-09-20T04:15:26.079Z,0.77
2022-09-20T04:17:40.252Z,0.93
2022-09-20T04:19:57.270Z,0.60
2022-09-20T04:22:01.631Z,0.93
2022-09-20T04:24:25.778Z,0.90
2022-09-20T04:26:31.107Z,0.70
2022-09-20T04:28:55.444Z,0.65
2022-09-20T04:31:12.638Z,0.80
2022-09-20T04:33:28.840Z,0.85
2022-09-20T04:36:08.730Z,1.10
2022-09-20T04:38:17.657Z,0.85
2022-09-20T04:40:38.470Z,0.95
2022-09-20T04:43:35.500Z,0.65
2022-09-20T04:45:52.706Z,0.88
2022-09-20T04:48:23.100Z,1.00
2022-09-20T04:51:03.113Z,0.88
2022-09-20T04:53:28.288Z,0.90
2022-09-20T04:55:33.894Z,0.73
2022-09-20T04:58:10.352Z,1.10
2022-09-20T05:00:19.113Z,1.00
2022-09-20T05:02:27.561Z,0.75
2022-09-20T05:04:53.605Z,0.88
2022-09-20T05:07:33.378Z,0.70
2022-09-20T05:10:07.454Z,0.80
2022-09-20T05:12:35.715Z,0.90
2022-09-20T05:14:41.963Z,0.90
2022-09-20T05:17:15.458Z,0.80
2022-09-20T05:19:56.028Z,0.57
2022-09-20T05:22:19.298Z,1.05
2022-09-20T05:24:45.177Z,0.95
2022-09-20T05:26:56.492Z,0.70
2022-09-20T05:29:17.828Z,0.60
2022-09-20T05:31:47.497Z,0.77
2022-09-20T05:34:04.770Z,0.77
2022-09-20T05:36:17.485Z,0.80
2022-09-20T05:38:48.013Z,0.80
2022-09-20T05:41:15.964Z,0.73
2022-09-20T05:43:31.167Z,0.95
2022-09-20T05:46:11.661Z,0.75
2022-09-20T05:48:36.949Z,0.80
2022-09-20T05:51:06.426Z,0.70
2022-09-20T05:53:48.353Z,0.65
2022-09-20T05:55:51.107Z,0.95
2022-09-20T05:58:19.157Z,1.08
2022-09-20T06:00:28.054Z,1.00
2022-09-20T06:02:54.784Z,1.02
2022-09-20T06:05:03.803Z,0.70
2022-09-20T06:07:15.011Z,0.82
2022-09-20T06:09:41.788Z,0.77
2022-09-20T06:11:47.421Z,1.00
2022-09-20T06:14:09.151Z,0.75
2022-09-20T06:16:19.962Z,0.70
2022-09-20T06:18:40.894Z,0.70
2022-09-20T06:20:55.472Z,1.20
2022-09-20T06:23:01.054Z,0.60
2022-09-20T06:25:09.723Z,0.60
2022-09-20T06:27:26.738Z,0.80
2022-09-20T06:29:42.120Z,0.70
2022-09-20T06:31:44.745Z,0.63
2022-09-20T06:34:05.848Z,0.80
2022-09-20T06:36:38.861Z,0.90
2022-09-20T06:39:26.324Z,0.93
2022-09-20T06:41:33.145Z,0.80
2022-09-20T06:43:40.647Z,0.65
2022-09-20T06:45:43.842Z,0.82
2022-09-20T06:47:46.427Z,0.52
2022-09-20T06:49:50.466Z,0.85
2022-09-20T06:51:53.172Z,0.57
2022-09-20T06:53:57.646Z,1.10
2022-09-20T06:56:01.432Z,1.33
2022-09-20T06:58:04.613Z,0.60
2022-09-20T07:00:10.996Z,0.70
2022-09-20T07:02:13.734Z,0.95
2022-09-20T07:04:16.313Z,1.15
2022-09-20T07:06:20.003Z,0.60
2022-09-20T07:08:22.653Z,0.82
2022-09-20T07:10:30.134Z,0.50
2022-09-20T07:12:35.317Z,0.90
2022-09-20T07:14:38.253Z,0.70
2022-09-20T07:16:40.874Z,0.80
2022-09-20T07:18:43.848Z,0.50
2022-09-20T07:20:46.710Z,0.60
2022-09-20T07:22:50.129Z,0.60
2022-09-20T07:24:53.003Z,0.65
2022-09-20T07:26:58.151Z,0.75
2022-09-20T07:29:01.386Z,0.68
2022-09-20T07:31:04.229Z,0.73
2022-09-20T07:33:08.354Z,1.02
2022-09-20T07:35:12.463Z,0.80
2022-09-20T07:37:17.851Z,0.85
2022-09-20T07:39:20.389Z,0.75
2022-09-20T07:41:23.514Z,0.68
2022-09-20T07:43:26.256Z,0.85
2022-09-20T07:45:29.878Z,0.80
2022-09-20T07:47:35.599Z,0.80
2022-09-20T07:49:38.317Z,1.67
2022-09-20T07:51:40.957Z,0.90
2022-09-20T07:53:43.744Z,0.60
2022-09-20T07:56:11.607Z,0.63
2022-09-20T07:58:14.249Z,0.70
2022-09-20T08:00:17.106Z,0.65
2022-09-20T08:02:20.035Z,0.68
2022-09-20T08:04:22.672Z,0.70
2022-09-20T08:06:25.533Z,0.70
2022-09-20T08:08:31.859Z,0.82
2022-09-20T08:10:34.650Z,0.73
2022-09-20T08:15:01.692Z,0.68
2022-09-20T08:17:06.907Z,0.45
2022-09-20T08:19:14.341Z,0.60
2022-09-20T08:21:17.777Z,1.05
2022-09-20T08:23:23.919Z,0.70
2022-09-20T08:25:26.634Z,0.80
2022-09-20T08:27:29.209Z,0.60
2022-09-20T08:29:31.987Z,0.90
2022-09-20T08:31:37.926Z,1.10
2022-09-20T08:33:41.004Z,0.70
2022-09-20T08:35:44.167Z,0.75
2022-09-20T08:37:47.709Z,0.90
2022-09-20T08:39:58.417Z,0.57
2022-09-20T08:42:34.929Z,0.50
2022-09-20T08:45:00.893Z,0.57
2022-09-20T08:47:18.121Z,0.85
2022-09-20T08:49:28.726Z,0.40
2022-09-20T08:51:35.627Z,0.50
2022-09-20T08:53:52.878Z,0.60
2022-09-20T08:56:00.055Z,0.65
2022-09-20T08:58:08.227Z,0.77
2022-09-20T09:00:18.897Z,0.60
2022-09-20T09:02:22.829Z,0.40
2022-09-20T09:04:35.431Z,0.50
2022-09-20T09:06:39.306Z,0.52
2022-09-20T09:08:43.636Z,0.63
2022-09-20T09:11:11.701Z,0.40
2022-09-20T09:13:53.299Z,0.55
2022-09-20T09:16:03.128Z,0.52
2022-09-20T09:18:11.655Z,0.40
2022-09-20T09:20:14.392Z,0.55
2022-09-20T09:22:36.977Z,0.45
2022-09-20T09:24:39.585Z,0.40
2022-09-20T09:26:46.820Z,0.60
2022-09-20T09:29:21.987Z,0.43
2022-09-20T09:31:26.194Z,0.90
2022-09-20T09:33:34.621Z,0.60
2022-09-20T09:35:37.548Z,0.47
2022-09-20T09:37:41.067Z,0.60
2022-09-20T09:39:43.740Z,0.50
2022-09-20T09:41:46.762Z,0.60
2022-09-20T09:44:01.915Z,0.50
2022-09-20T09:46:18.743Z,0.73
2022-09-20T09:48:28.293Z,0.70
2022-09-20T09:50:34.017Z,0.40
2022-09-20T09:52:37.640Z,0.38
2022-09-20T09:54:52.463Z,0.50
2022-09-20T09:57:11.175Z,0.50
2022-09-20T09:59:22.625Z,0.70
2022-09-20T10:04:02.758Z,0.70
2022-09-20T10:06:20.306Z,0.50
2022-09-20T10:08:30.869Z,0.50
2022-09-20T10:11:01.026Z,1.13
2022-09-20T10:13:09.728Z,0.55
2022-09-20T10:15:25.549Z,0.50
2022-09-20T10:17:43.592Z,0.45
2022-09-20T10:20:23.377Z,0.57
2022-09-20T10:22:41.249Z,0.70
2022-09-20T10:25:03.280Z,0.30
2022-09-20T10:28:08.809Z,0.60
2022-09-20T10:30:24.291Z,0.70
2022-09-20T10:32:39.414Z,0.30
2022-09-20T10:34:59.458Z,0.50
2022-09-20T10:37:02.215Z,0.47
2022-09-20T10:39:35.605Z,0.60
2022-09-20T10:42:24.235Z,0.60
2022-09-20T10:44:38.503Z,0.40
2022-09-20T10:47:04.291Z,0.50
2022-09-20T10:49:29.091Z,0.30
2022-09-20T10:51:44.818Z,0.60
2022-09-20T10:54:06.214Z,0.60
2022-09-20T10:56:33.765Z,1.15
2022-09-20T10:58:42.020Z,1.30
2022-09-20T11:01:00.989Z,0.45
2022-09-20T11:03:34.571Z,0.57
2022-09-20T11:05:49.101Z,0.65
2022-09-20T11:08:15.198Z,0.80
2022-09-20T11:10:36.296Z,0.65
2022-09-20T11:12:49.296Z,0.50
2022-09-20T11:15:04.921Z,0.50
2022-09-20T11:17:13.573Z,0.60
2022-09-20T11:19:27.730Z,0.63
2022-09-20T11:22:01.424Z,0.60
2022-09-20T11:24:28.718Z,0.88
2022-09-20T11:26:35.224Z,0.65
2022-09-20T11:28:44.991Z,0.75
2022-09-20T11:31:26.508Z,0.60
2022-09-20T11:33:41.269Z,0.47
2022-09-20T11:35:51.726Z,0.47
2022-09-20T11:38:36.825Z,0.55
2022-09-20T11:40:48.181Z,0.50
2022-09-20T11:44:55.985Z,0.70
2022-09-20T11:46:58.518Z,0.40
2022-09-20T11:49:03.636Z,0.70
2022-09-20T11:51:06.302Z,0.70
2022-09-20T11:53:27.132Z,0.50
2022-09-20T11:55:47.345Z,0.35
2022-09-20T11:58:17.105Z,0.50
2022-09-20T12:00:31.073Z,0.32
2022-09-20T12:02:53.015Z,0.50
2022-09-20T12:04:56.570Z,0.30
2022-09-20T12:07:18.097Z,0.60
2022-09-20T12:09:29.365Z,0.55
2022-09-20T12:11:39.050Z,0.30
2022-09-20T12:13:52.849Z,1.40
2022-09-20T12:16:04.247Z,0.50
2022-09-20T12:18:35.956Z,0.50
2022-09-20T12:20:45.238Z,0.28
2022-09-20T12:22:47.902Z,0.88
2022-09-20T12:25:29.006Z,0.40
2022-09-20T12:27:32.837Z,0.50
2022-09-20T12:29:35.475Z,0.50
2022-09-20T12:31:39.322Z,0.40
2022-09-20T12:34:01.359Z,0.60
2022-09-20T12:36:17.235Z,0.50
2022-09-20T12:38:32.273Z,0.38
2022-09-20T12:40:35.049Z,0.45
2022-09-20T12:42:37.887Z,0.38
2022-09-20T12:44:49.570Z,1.35
2022-09-20T12:47:00.404Z,0.47
2022-09-20T12:49:45.658Z,0.60
2022-09-20T12:52:10.731Z,0.68
2022-09-20T12:54:14.237Z,0.50
2022-09-20T12:56:23.549Z,0.40
2022-09-20T12:58:36.709Z,0.50
2022-09-20T13:00:49.996Z,0.32
2022-09-20T13:02:53.077Z,0.63
2022-09-20T13:04:56.197Z,0.65
2022-09-20T13:07:33.560Z,0.47
2022-09-20T13:09:36.510Z,0.50
2022-09-20T13:11:52.782Z,0.47
2022-09-20T13:13:55.480Z,0.80
2022-09-20T13:15:59.684Z,0.50
2022-09-20T13:18:03.023Z,0.40
2022-09-20T13:20:06.761Z,0.63
2022-09-20T13:22:20.053Z,0.40
2022-09-20T13:24:24.845Z,0.50
2022-09-20T13:26:34.899Z,0.43
2022-09-20T13:28:51.840Z,0.88
2022-09-20T13:31:22.731Z,0.68
2022-09-20T13:33:25.988Z,0.30
2022-09-20T13:35:31.856Z,0.60
2022-09-20T13:37:36.980Z,0.20
2022-09-20T13:39:41.514Z,0.50
2022-09-20T13:41:44.225Z,0.60
2022-09-20T13:43:49.638Z,0.50
2022-09-20T13:45:56.844Z,0.50
2022-09-20T13:48:04.539Z,0.50
2022-09-20T13:50:16.116Z,0.50
2022-09-20T13:54:52.609Z,0.80
2022-09-20T13:56:57.978Z,1.15
2022-09-20T13:59:05.873Z,0.50
2022-09-20T14:01:31.344Z,0.60
2022-09-20T14:03:36.249Z,0.40
2022-09-20T14:05:47.030Z,0.52
2022-09-20T14:07:50.474Z,0.60
2022-09-20T14:09:54.321Z,0.50
2022-09-20T14:11:59.409Z,0.55
2022-09-20T14:14:05.133Z,0.50
2022-09-20T14:16:10.101Z,0.65
2022-09-20T14:18:17.104Z,0.73
2022-09-20T14:20:19.784Z,0.75
2022-09-20T14:22:29.305Z,0.90
2022-09-20T14:24:38.505Z,0.70
2022-09-20T14:26:43.020Z,0.63
2022-09-20T14:29:04.512Z,0.65
2022-09-20T14:31:29.077Z,0.70
2022-09-20T14:33:31.957Z,0.80
2022-09-20T14:35:34.849Z,0.80
2022-09-20T14:38:12.729Z,0.70
2022-09-20T14:40:32.377Z,0.77
2022-09-20T14:42:41.368Z,0.50
2022-09-20T14:44:44.034Z,0.82
2022-09-20T14:46:47.465Z,0.70
2022-09-20T14:48:50.921Z,0.70
2022-09-20T14:51:16.505Z,0.90
2022-09-20T14:53:19.259Z,0.82
2022-09-20T14:55:28.661Z,0.88
2022-09-20T14:57:32.441Z,0.50
2022-09-20T14:59:43.897Z,0.60
2022-09-20T15:03:58.919Z,0.68
2022-09-20T15:06:01.669Z,1.02
2022-09-20T15:08:04.404Z,0.63
2022-09-20T15:10:12.534Z,0.93
2022-09-20T15:12:20.058Z,0.63
2022-09-20T15:14:23.108Z,0.70
2022-09-20T15:16:26.228Z,1.02
2022-09-20T15:18:35.589Z,1.00
2022-09-20T15:20:38.396Z,0.93
2022-09-20T15:22:41.673Z,0.75
2022-09-20T15:24:44.416Z,0.77
2022-09-20T15:26:48.221Z,0.95
2022-09-20T15:28:50.828Z,0.82
2022-09-20T15:30:54.026Z,0.85
2022-09-20T15:33:02.222Z,0.98
2022-09-20T15:35:06.577Z,0.98
2022-09-20T15:37:09.382Z,0.80
2022-09-20T15:39:12.710Z,0.93
2022-09-20T15:41:15.673Z,0.80
2022-09-20T15:43:26.634Z,0.90
2022-09-20T15:45:29.447Z,1.00
2022-09-20T15:47:32.114Z,1.10
2022-09-20T15:49:35.318Z,1.15
2022-09-20T15:51:39.230Z,1.15
2022-09-20T15:53:48.889Z,1.30
2022-09-20T15:55:51.623Z,1.20
2022-09-20T15:57:54.268Z,1.20
2022-09-20T15:59:58.092Z,1.85
2022-09-20T16:02:01.552Z,1.70
2022-09-20T16:04:12.643Z,1.50
2022-09-20T16:06:15.265Z,1.10
2022-09-20T16:08:18.124Z,1.45
2022-09-20T16:10:21.010Z,1.40
2022-09-20T16:12:25.662Z,1.40
2022-09-20T16:14:28.278Z,0.93
2022-09-20T16:16:37.448Z,0.98
2022-09-20T16:21:08.475Z,1.27
2022-09-20T16:23:14.293Z,0.88
2022-09-20T16:25:17.171Z,0.80
2022-09-20T16:27:19.801Z,1.00
2022-09-20T16:29:22.627Z,0.98
2022-09-20T16:31:32.931Z,0.95
2022-09-20T16:33:36.618Z,1.13
2022-09-20T16:35:39.480Z,0.98
2022-09-20T16:37:42.332Z,0.80
2022-09-20T16:39:45.084Z,1.35
2022-09-20T16:41:48.930Z,1.27
2022-09-20T16:43:52.741Z,1.15
2022-09-20T16:46:00.828Z,1.20
2022-09-20T16:48:07.846Z,1.30
2022-09-20T16:50:12.171Z,0.88
2022-09-20T16:52:15.224Z,1.25
2022-09-20T16:54:18.005Z,1.00
2022-09-20T16:56:29.870Z,1.02
2022-09-20T16:58:34.098Z,0.98
2022-09-20T17:00:36.729Z,0.90
2022-09-20T17:02:39.314Z,1.33
2022-09-20T17:04:43.893Z,1.05
2022-09-20T17:06:47.318Z,1.00
2022-09-20T17:08:58.086Z,1.13
2022-09-20T17:13:07.607Z,1.17
2022-09-20T17:15:13.334Z,1.00
2022-09-20T17:17:16.070Z,0.85
2022-09-20T17:19:21.047Z,0.80
2022-09-20T17:21:24.314Z,1.13
2022-09-20T17:23:27.226Z,1.20
2022-09-20T17:25:30.533Z,0.90
2022-09-20T17:27:33.349Z,1.20
2022-09-20T17:29:35.994Z,1.27
2022-09-20T17:31:41.798Z,1.15
2022-09-20T17:33:46.116Z,1.25
2022-09-20T17:35:52.446Z,1.95
2022-09-20T17:37:55.168Z,1.13
2022-09-20T17:40:02.227Z,1.02
2022-09-20T17:42:06.271Z,0.80
2022-09-20T17:44:10.266Z,1.25
2022-09-20T17:46:16.636Z,1.08
2022-09-20T17:48:19.440Z,1.00
2022-09-20T17:50:22.080Z,1.30
2022-09-20T17:52:24.697Z,1.23
2022-09-20T17:54:27.549Z,0.95
2022-09-20T17:56:31.479Z,1.10
2022-09-20T17:58:36.314Z,1.00
2022-09-20T18:00:39.215Z,1.23
2022-09-20T18:02:42.924Z,1.13
2022-09-20T18:04:45.557Z,1.00
2022-09-20T18:06:50.500Z,1.20
2022-09-20T18:09:14.417Z,1.48
2022-09-20T18:11:20.132Z,1.25
2022-09-20T18:13:23.453Z,1.00
2022-09-20T18:15:26.276Z,1.35
2022-09-20T18:17:29.246Z,1.20
2022-09-20T18:19:34.663Z,1.40
2022-09-20T18:21:39.473Z,0.95
2022-09-20T18:23:43.616Z,1.45
2022-09-20T18:26:04.826Z,1.73
2022-09-20T18:28:07.493Z,1.42
2022-09-20T18:30:10.732Z,1.00
2022-09-20T18:32:13.445Z,1.17
2022-09-20T18:34:18.631Z,1.15
2022-09-20T18:36:21.519Z,0.88
2022-09-20T18:38:24.148Z,1.58
2022-09-20T18:40:27.298Z,1.30
2022-09-20T18:42:31.233Z,1.27
2022-09-20T18:44:34.178Z,1.23
2022-09-20T18:46:40.775Z,1.40
2022-09-20T18:48:46.754Z,1.52
2022-09-20T18:51:04.809Z,1.20
2022-09-20T18:53:08.067Z,1.08
2022-09-20T18:55:11.190Z,1.17
2022-09-20T18:57:14.181Z,1.58
2022-09-20T18:59:22.808Z,1.60
2022-09-20T19:01:45.886Z,1.38
2022-09-20T19:04:06.859Z,1.10
2022-09-20T19:06:12.309Z,1.70
2022-09-20T19:08:38.067Z,1.52
2022-09-20T19:10:58.348Z,1.30
2022-09-20T19:13:23.043Z,1.27
2022-09-20T19:15:36.850Z,1.50
2022-09-20T19:17:48.202Z,1.10
2022-09-20T19:20:04.538Z,1.15
2022-09-20T19:22:09.688Z,1.20
2022-09-20T19:24:56.907Z,0.98
2022-09-20T19:26:59.808Z,1.83
2022-09-20T19:29:02.773Z,1.45
2022-09-20T19:31:05.845Z,1.30
2022-09-20T19:33:19.426Z,1.48
2022-09-20T19:35:32.624Z,1.40
2022-09-20T19:38:04.278Z,1.10
2022-09-20T19:40:31.497Z,1.33
2022-09-20T19:43:14.053Z,1.70
2022-09-20T19:45:38.749Z,1.00
2022-09-20T19:48:15.213Z,1.42
2022-09-20T19:50:28.334Z,1.13
2022-09-20T19:52:31.255Z,1.70
2022-09-20T19:54:34.363Z,1.27
2022-09-20T19:56:48.464Z,1.70
2022-09-20T19:58:56.325Z,1.63
2022-09-20T20:00:59.360Z,1.55
2022-09-20T20:03:02.376Z,1.55
2022-09-20T20:05:05.587Z,1.70
2022-09-20T20:07:08.405Z,1.55
2022-09-20T20:09:34.468Z,1.42
2022-09-20T20:12:17.268Z,1.33
2022-09-20T20:14:46.303Z,1.17
2022-09-20T20:17:06.927Z,1.83
2022-09-20T20:19:43.943Z,1.13
2022-09-20T20:21:57.900Z,1.45
2022-09-20T20:24:15.338Z,1.50
2022-09-20T20:26:22.225Z,1.60
2022-09-20T20:28:24.955Z,1.50
2022-09-20T20:30:27.640Z,1.40
2022-09-20T20:32:30.300Z,1.52
2022-09-20T20:34:33.526Z,1.80
2022-09-20T20:36:36.202Z,1.50
2022-09-20T20:38:41.283Z,1.60
2022-09-20T20:40:44.244Z,1.80
2022-09-20T20:42:46.943Z,1.88
2022-09-20T20:44:49.912Z,1.52
2022-09-20T20:46:52.631Z,2.00
2022-09-20T20:48:55.618Z,1.48
2022-09-20T20:51:10.797Z,1.48
2022-09-20T20:53:13.596Z,1.42
2022-09-20T20:55:16.326Z,1.90
2022-09-20T20:57:19.211Z,1.70
2022-09-20T20:59:21.851Z,1.42
2022-09-20T21:01:36.660Z,1.40
2022-09-20T21:03:41.925Z,1.48
2022-09-20T21:05:45.235Z,1.17
2022-09-20T21:07:51.432Z,1.55
2022-09-20T21:09:54.512Z,1.38
2022-09-20T21:11:57.153Z,1.58
2022-09-20T21:14:01.523Z,1.60
2022-09-20T21:16:06.484Z,1.75
2022-09-20T21:18:10.602Z,1.58
2022-09-20T21:20:13.339Z,1.60
2022-09-20T21:22:16.076Z,1.60
2022-09-20T21:24:18.870Z,1.35
2022-09-20T21:26:23.156Z,1.50
2022-09-20T21:28:25.815Z,1.58
2022-09-20T21:30:28.473Z,1.52
2022-09-20T21:32:31.136Z,1.60
2022-09-20T21:34:33.914Z,1.75
2022-09-20T21:36:38.091Z,1.42
2022-09-20T21:38:42.132Z,1.58
2022-09-20T21:40:44.841Z,1.42
2022-09-20T21:42:47.486Z,1.77
2022-09-20T21:44:52.085Z,1.35
2022-09-20T21:46:54.789Z,1.50
2022-09-20T21:48:59.598Z,1.67
2022-09-20T21:51:05.405Z,1.40
2022-09-20T21:53:08.083Z,1.30
2022-09-20T21:55:11.002Z,1.65
2022-09-20T21:57:13.986Z,1.48
2022-09-20T21:59:17.018Z,1.58
2022-09-20T22:01:28.158Z,1.60
2022-09-20T22:03:35.604Z,1.80
2022-09-20T22:05:38.206Z,1.52
2022-09-20T22:07:41.362Z,1.40
2022-09-20T22:09:44.074Z,1.67
2022-09-20T22:11:48.646Z,1.65
2022-09-20T22:13:53.264Z,1.40
2022-09-20T22:16:05.369Z,1.60
2022-09-20T22:18:08.150Z,1.85
2022-09-20T22:20:11.099Z,1.27
2022-09-20T22:22:13.918Z,1.85
2022-09-20T22:24:17.521Z,1.60
2022-09-20T22:26:22.203Z,1.52
2022-09-20T22:28:24.867Z,1.67
2022-09-20T22:30:27.566Z,1.45
2022-09-20T22:32:31.088Z,1.48
2022-09-20T22:34:33.790Z,1.63
2022-09-20T22:36:39.459Z,1.50
2022-09-20T22:38:45.530Z,1.52
2022-09-20T22:40:58.355Z,1.60
2022-09-20T22:43:01.033Z,1.52
2022-09-20T22:45:03.912Z,1.17
2022-09-20T22:47:06.862Z,1.30
2022-09-20T22:49:09.743Z,1.40
2022-09-20T22:51:15.380Z,1.00
2022-09-20T22:53:18.274Z,1.38
2022-09-20T22:55:20.927Z,1.38
2022-09-20T22:57:23.592Z,1.20
2022-09-20T22:59:26.219Z,1.80
2022-09-20T23:01:31.214Z,1.40
2022-09-20T23:03:34.067Z,1.40
2022-09-20T23:05:39.988Z,1.48
2022-09-20T23:07:42.728Z,1.63
2022-09-20T23:09:46.157Z,1.48
2022-09-20T23:11:49.679Z,1.40
2022-09-20T23:13:57.349Z,2.05
2022-09-20T23:16:00.140Z,2.03
2022-09-20T23:18:02.802Z,2.00
2022-09-20T23:20:05.757Z,1.65
2022-09-20T23:22:08.456Z,1.88
2022-09-20T23:24:13.101Z,2.13
2022-09-20T23:26:17.907Z,2.22
2022-09-20T23:28:20.666Z,1.75
2022-09-20T23:30:23.548Z,2.30
2022-09-20T23:32:26.244Z,2.08
2022-09-20T23:34:28.846Z,1.80
2022-09-20T23:36:34.316Z,1.90
2022-09-20T23:38:37.494Z,1.65
2022-09-20T23:40:40.360Z,1.85
2022-09-20T23:42:43.027Z,1.77
2022-09-20T23:44:45.727Z,1.67
2022-09-20T23:46:48.529Z,1.83
2022-09-20T23:48:51.444Z,1.85
2022-09-20T23:50:54.499Z,1.77
2022-09-20T23:52:57.234Z,2.22
2022-09-20T23:55:00.293Z,2.22
2022-09-20T23:57:03.023Z,2.50
2022-09-20T23:59:05.670Z,2.40
